createdAt,value
2022-09-18T00:00:21.026Z,23.39
2022-09-18T00:01:21.026Z,23.39
2022-09-18T00:02:21.081Z,23.69
2022-09-18T00:03:21.068Z,23.20
2022-09-18T00:04:21.027Z,23.30
2022-09-18T00:05:21.025Z,23.30
2022-09-18T00:06:21.153Z,23.49
2022-09-18T00:07:21.025Z,23.20
2022-09-18T00:08:21.026Z,23.30
2022-09-18T00:09:21.027Z,23.59
2022-09-18T00:10:21.027Z,23.49
2022-09-18T00:11:21.027Z,23.30
2022-09-18T00:12:21.027Z,23.20
2022-09-18T00:13:21.028Z,23.30
2022-09-18T00:14:21.026Z,23.20
2022-09-18T00:15:21.026Z,23.30
2022-09-18T00:16:21.155Z,23.30
2022-09-18T00:17:21.027Z,23.20
2022-09-18T00:18:21.027Z,23.39
2022-09-18T00:19:21.029Z,23.20
2022-09-18T00:20:21.028Z,23.20
2022-09-18T00:21:21.027Z,23.20
2022-09-18T00:22:21.142Z,23.20
2022-09-18T00:23:21.028Z,23.30
2022-09-18T00:24:21.029Z,23.30
2022-09-18T00:25:21.029Z,23.20
2022-09-18T00:26:21.027Z,23.30
2022-09-18T00:27:21.177Z,23.30
2022-09-18T00:28:21.029Z,23.30
2022-09-18T00:29:21.027Z,23.39
2022-09-18T00:30:21.028Z,23.39
2022-09-18T00:31:21.132Z,23.39
2022-09-18T00:32:21.028Z,23.39
2022-09-18T00:33:21.027Z,23.39
2022-09-18T00:34:21.027Z,23.20
2022-09-18T00:35:21.028Z,23.39
2022-09-18T00:36:21.029Z,23.30
2022-09-18T00:37:21.027Z,23.20
2022-09-18T00:38:21.149Z,23.30
2022-09-18T00:39:21.029Z,23.30
2022-09-18T00:40:21.089Z,23.20
2022-09-18T00:41:21.029Z,23.20
2022-09-18T00:42:21.030Z,23.39
2022-09-18T00:43:21.029Z,23.39
2022-09-18T00:44:21.029Z,23.49
2022-09-18T00:45:21.029Z,23.30
2022-09-18T00:46:21.094Z,23.30
2022-09-18T00:47:21.030Z,23.30
2022-09-18T00:48:21.030Z,23.20
2022-09-18T00:49:21.028Z,23.19
2022-09-18T00:50:21.031Z,23.10
2022-09-18T00:51:21.028Z,23.39
2022-09-18T00:52:21.030Z,23.20
2022-09-18T00:53:21.029Z,23.39
2022-09-18T00:54:21.149Z,23.20
2022-09-18T00:55:21.030Z,23.30
2022-09-18T00:56:21.033Z,23.10
2022-09-18T00:57:21.031Z,23.20
2022-09-18T00:58:21.032Z,23.30
2022-09-18T00:59:21.030Z,23.20
2022-09-18T01:00:21.031Z,23.20
2022-09-18T01:01:21.142Z,23.20
2022-09-18T01:02:21.141Z,23.20
2022-09-18T01:03:21.031Z,23.39
2022-09-18T01:04:21.030Z,23.39
2022-09-18T01:05:21.031Z,23.20
2022-09-18T01:06:21.031Z,23.10
2022-09-18T01:07:21.031Z,23.10
2022-09-18T01:08:21.031Z,23.10
2022-09-18T01:09:28.347Z,23.10
2022-09-18T01:10:21.148Z,23.39
2022-09-18T01:11:21.031Z,23.10
2022-09-18T01:12:21.036Z,23.10
2022-09-18T01:13:21.031Z,23.20
2022-09-18T01:14:21.031Z,23.20
2022-09-18T01:15:21.032Z,23.10
2022-09-18T01:16:21.121Z,23.10
2022-09-18T01:17:21.031Z,23.20
2022-09-18T01:18:21.033Z,23.10
2022-09-18T01:19:21.030Z,23.20
2022-09-18T01:20:21.032Z,23.10
2022-09-18T01:21:21.033Z,23.20
2022-09-18T01:22:21.032Z,23.20
2022-09-18T01:23:21.032Z,23.10
2022-09-18T01:24:21.031Z,23.20
2022-09-18T01:25:21.034Z,23.10
2022-09-18T01:26:21.155Z,23.10
2022-09-18T01:27:21.032Z,22.91
2022-09-18T01:28:21.031Z,23.00
2022-09-18T01:29:21.032Z,23.10
2022-09-18T01:30:21.034Z,23.00
2022-09-18T01:31:21.107Z,23.20
2022-09-18T01:32:21.036Z,23.10
2022-09-18T01:33:21.034Z,23.20
2022-09-18T01:34:21.031Z,23.10
2022-09-18T01:36:21.033Z,23.00
2022-09-18T01:37:21.041Z,22.91
2022-09-18T01:38:21.033Z,23.10
2022-09-18T01:39:21.033Z,23.10
2022-09-18T01:40:21.103Z,23.20
2022-09-18T01:41:21.035Z,23.10
2022-09-18T01:42:21.152Z,23.00
2022-09-18T01:43:21.033Z,23.00
2022-09-18T01:44:21.034Z,22.91
2022-09-18T01:45:21.034Z,23.00
2022-09-18T01:46:21.127Z,22.91
2022-09-18T01:47:21.035Z,23.00
2022-09-18T01:48:21.035Z,23.10
2022-09-18T01:49:21.034Z,22.91
2022-09-18T01:50:21.032Z,23.00
2022-09-18T01:51:21.035Z,23.00
2022-09-18T01:52:21.035Z,23.00
2022-09-18T01:53:21.034Z,23.00
2022-09-18T01:54:21.033Z,23.00
2022-09-18T01:55:21.034Z,22.91
2022-09-18T01:56:21.035Z,23.10
2022-09-18T01:57:21.035Z,22.91
2022-09-18T01:58:21.154Z,23.00
2022-09-18T01:59:21.034Z,23.00
2022-09-18T02:00:21.034Z,23.00
2022-09-18T02:01:21.068Z,22.91
2022-09-18T02:02:21.202Z,22.91
2022-09-18T02:03:21.035Z,22.81
2022-09-18T02:04:21.034Z,22.91
2022-09-18T02:05:21.036Z,22.91
2022-09-18T02:06:21.034Z,22.81
2022-09-18T02:07:21.035Z,23.00
2022-09-18T02:08:21.035Z,22.91
2022-09-18T02:09:21.037Z,22.91
2022-09-18T02:10:21.034Z,23.00
2022-09-18T02:11:21.036Z,22.91
2022-09-18T02:12:21.039Z,22.91
2022-09-18T02:13:21.041Z,22.91
2022-09-18T02:14:21.152Z,23.00
2022-09-18T02:15:21.036Z,22.81
2022-09-18T02:16:21.170Z,22.91
2022-09-18T02:17:21.037Z,22.81
2022-09-18T02:18:21.037Z,23.00
2022-09-18T02:19:21.038Z,22.72
2022-09-18T02:20:21.036Z,22.81
2022-09-18T02:21:21.039Z,22.81
2022-09-18T02:22:21.035Z,22.81
2022-09-18T02:23:21.038Z,22.81
2022-09-18T02:24:21.036Z,22.81
2022-09-18T02:25:21.038Z,22.72
2022-09-18T02:26:21.035Z,22.81
2022-09-18T02:27:21.037Z,22.81
2022-09-18T02:28:21.039Z,22.72
2022-09-18T02:29:21.041Z,22.72
2022-09-18T02:30:21.153Z,22.81
2022-09-18T02:31:21.095Z,22.72
2022-09-18T02:32:21.037Z,22.72
2022-09-18T02:33:21.038Z,22.72
2022-09-18T02:34:21.037Z,22.81
2022-09-18T02:35:21.037Z,22.81
2022-09-18T02:36:21.037Z,22.81
2022-09-18T02:37:21.042Z,22.81
2022-09-18T02:38:21.036Z,22.72
2022-09-18T02:39:21.039Z,22.62
2022-09-18T02:40:21.146Z,22.81
2022-09-18T02:41:21.038Z,22.72
2022-09-18T02:42:21.042Z,22.62
2022-09-18T02:43:21.039Z,22.62
2022-09-18T02:44:21.037Z,22.62
2022-09-18T02:45:21.039Z,22.62
2022-09-18T02:46:21.223Z,22.72
2022-09-18T02:47:21.049Z,22.52
2022-09-18T02:48:21.038Z,22.62
2022-09-18T02:49:21.039Z,22.62
2022-09-18T02:50:21.038Z,22.61
2022-09-18T02:51:21.041Z,22.72
2022-09-18T02:52:21.038Z,22.62
2022-09-18T02:53:21.039Z,22.72
2022-09-18T02:54:21.037Z,22.72
2022-09-18T02:55:21.041Z,22.72
2022-09-18T02:56:21.040Z,22.62
2022-09-18T02:57:21.043Z,22.72
2022-09-18T02:58:21.038Z,22.62
2022-09-18T02:59:21.039Z,22.62
2022-09-18T03:00:21.041Z,22.61
2022-09-18T03:01:21.141Z,22.62
2022-09-18T03:02:21.289Z,22.52
2022-09-18T03:03:21.039Z,22.72
2022-09-18T03:04:21.045Z,22.42
2022-09-18T03:05:21.041Z,22.52
2022-09-18T03:06:21.039Z,22.52
2022-09-18T03:07:21.047Z,22.62
2022-09-18T03:08:21.038Z,22.42
2022-09-18T03:09:21.041Z,22.42
2022-09-18T03:10:21.039Z,22.72
2022-09-18T03:11:21.042Z,22.42
2022-09-18T03:12:21.040Z,22.52
2022-09-18T03:13:21.042Z,22.42
2022-09-18T03:14:21.046Z,22.42
2022-09-18T03:15:21.040Z,22.42
2022-09-18T03:16:21.114Z,22.51
2022-09-18T03:17:21.043Z,22.31
2022-09-18T03:18:21.070Z,22.62
2022-09-18T03:19:21.047Z,22.52
2022-09-18T03:20:21.040Z,22.52
2022-09-18T03:21:21.042Z,22.33
2022-09-18T03:22:21.040Z,22.42
2022-09-18T03:23:21.042Z,22.62
2022-09-18T03:24:21.041Z,22.62
2022-09-18T03:25:21.043Z,22.42
2022-09-18T03:26:21.040Z,22.52
2022-09-18T03:27:21.041Z,22.52
2022-09-18T03:28:21.141Z,22.52
2022-09-18T03:29:21.042Z,22.52
2022-09-18T03:30:21.041Z,22.52
2022-09-18T03:31:21.113Z,22.42
2022-09-18T03:32:21.041Z,22.33
2022-09-18T03:33:21.042Z,22.41
2022-09-18T03:34:21.161Z,22.52
2022-09-18T03:35:21.042Z,22.52
2022-09-18T03:36:21.055Z,22.42
2022-09-18T03:37:21.049Z,22.41
2022-09-18T03:38:21.042Z,22.51
2022-09-18T03:39:21.042Z,22.42
2022-09-18T03:40:21.095Z,22.22
2022-09-18T03:41:21.045Z,22.42
2022-09-18T03:42:21.041Z,22.42
2022-09-18T03:43:21.043Z,22.42
2022-09-18T03:44:21.042Z,22.42
2022-09-18T03:45:21.050Z,22.42
2022-09-18T03:46:21.093Z,22.42
2022-09-18T03:47:21.045Z,22.42
2022-09-18T03:48:21.042Z,22.42
2022-09-18T03:49:21.044Z,22.42
2022-09-18T03:50:21.157Z,22.52
2022-09-18T03:51:21.045Z,22.33
2022-09-18T03:52:21.041Z,22.42
2022-09-18T03:53:21.044Z,22.33
2022-09-18T03:54:21.042Z,22.33
2022-09-18T03:55:21.045Z,22.33
2022-09-18T03:56:21.042Z,22.23
2022-09-18T03:57:21.046Z,22.23
2022-09-18T03:58:21.043Z,22.33
2022-09-18T03:59:21.044Z,22.33
2022-09-18T04:00:21.044Z,22.23
2022-09-18T04:01:21.222Z,22.33
2022-09-18T04:02:21.046Z,22.23
2022-09-18T04:03:21.043Z,22.33
2022-09-18T04:04:21.047Z,22.31
2022-09-18T04:05:21.045Z,22.33
2022-09-18T04:06:21.163Z,22.13
2022-09-18T04:07:21.046Z,22.23
2022-09-18T04:08:21.044Z,22.22
2022-09-18T04:09:21.045Z,22.33
2022-09-18T04:10:21.042Z,22.23
2022-09-18T04:11:21.043Z,22.33
2022-09-18T04:12:21.044Z,22.23
2022-09-18T04:13:21.047Z,22.23
2022-09-18T04:14:21.043Z,22.23
2022-09-18T04:15:21.044Z,22.23
2022-09-18T04:16:21.106Z,22.23
2022-09-18T04:17:21.045Z,22.23
2022-09-18T04:18:21.043Z,22.23
2022-09-18T04:19:21.046Z,22.23
2022-09-18T04:20:21.044Z,22.22
2022-09-18T04:21:21.045Z,22.03
2022-09-18T04:22:21.166Z,22.03
2022-09-18T04:23:21.047Z,22.03
2022-09-18T04:24:21.045Z,22.13
2022-09-18T04:25:21.047Z,22.33
2022-09-18T04:26:21.043Z,22.03
2022-09-18T04:27:21.047Z,22.23
2022-09-18T04:28:21.047Z,22.23
2022-09-18T04:29:21.048Z,22.03
2022-09-18T04:30:21.043Z,22.03
2022-09-18T04:31:21.106Z,22.02
2022-09-18T04:32:21.044Z,22.03
2022-09-18T04:33:21.045Z,22.03
2022-09-18T04:34:21.044Z,22.02
2022-09-18T04:35:21.045Z,21.93
2022-09-18T04:36:21.044Z,21.94
2022-09-18T04:37:21.047Z,22.13
2022-09-18T04:38:21.177Z,22.03
2022-09-18T04:39:21.048Z,22.03
2022-09-18T04:40:21.169Z,22.02
2022-09-18T04:41:21.045Z,22.03
2022-09-18T04:42:21.047Z,22.03
2022-09-18T04:43:21.047Z,22.03
2022-09-18T04:44:21.046Z,22.03
2022-09-18T04:45:21.047Z,22.02
2022-09-18T04:46:21.095Z,21.94
2022-09-18T04:47:21.046Z,22.03
2022-09-18T04:48:21.045Z,22.03
2022-09-18T04:49:21.046Z,22.03
2022-09-18T04:50:21.044Z,22.13
2022-09-18T04:51:21.047Z,22.03
2022-09-18T04:52:21.045Z,22.03
2022-09-18T04:53:21.047Z,22.12
2022-09-18T04:54:21.164Z,22.12
2022-09-18T04:55:21.046Z,22.13
2022-09-18T04:56:21.046Z,21.94
2022-09-18T04:57:21.048Z,22.13
2022-09-18T04:58:21.053Z,21.93
2022-09-18T04:59:21.048Z,22.13
2022-09-18T05:00:21.045Z,22.03
2022-09-18T05:01:21.131Z,22.02
2022-09-18T05:02:21.113Z,22.03
2022-09-18T05:03:21.051Z,21.94
2022-09-18T05:04:21.049Z,21.83
2022-09-18T05:05:21.048Z,22.03
2022-09-18T05:06:21.046Z,22.22
2022-09-18T05:07:21.048Z,21.94
2022-09-18T05:08:21.046Z,22.03
2022-09-18T05:09:21.047Z,21.84
2022-09-18T05:10:21.162Z,21.94
2022-09-18T05:11:21.048Z,22.13
2022-09-18T05:12:21.046Z,21.94
2022-09-18T05:13:21.047Z,21.94
2022-09-18T05:14:21.046Z,21.93
2022-09-18T05:15:21.048Z,22.03
2022-09-18T05:16:21.089Z,22.03
2022-09-18T05:17:21.049Z,21.93
2022-09-18T05:18:21.050Z,22.03
2022-09-18T05:19:21.048Z,22.03
2022-09-18T05:20:21.047Z,21.94
2022-09-18T05:21:21.049Z,22.02
2022-09-18T05:22:21.048Z,21.94
2022-09-18T05:23:21.058Z,22.03
2022-09-18T05:24:21.049Z,21.84
2022-09-18T05:25:21.049Z,21.84
2022-09-18T05:26:21.165Z,21.73
2022-09-18T05:27:24.803Z,21.93
2022-09-18T05:28:21.048Z,21.83
2022-09-18T05:29:21.048Z,21.93
2022-09-18T05:30:21.047Z,21.94
2022-09-18T05:31:21.075Z,21.94
2022-09-18T05:32:21.051Z,21.93
2022-09-18T05:33:21.049Z,21.94
2022-09-18T05:34:21.051Z,21.75
2022-09-18T05:35:21.049Z,21.93
2022-09-18T05:36:21.047Z,21.73
2022-09-18T05:37:21.049Z,21.75
2022-09-18T05:38:21.048Z,21.64
2022-09-18T05:39:21.048Z,21.83
2022-09-18T05:40:21.094Z,21.73
2022-09-18T05:41:21.049Z,21.83
2022-09-18T05:42:21.169Z,21.75
2022-09-18T05:43:21.051Z,21.94
2022-09-18T05:44:21.050Z,21.84
2022-09-18T05:45:21.048Z,21.75
2022-09-18T05:46:21.092Z,21.83
2022-09-18T05:47:21.054Z,21.84
2022-09-18T05:48:21.050Z,21.75
2022-09-18T05:49:21.054Z,21.84
2022-09-18T05:50:21.049Z,21.83
2022-09-18T05:51:21.049Z,21.75
2022-09-18T05:52:21.050Z,21.75
2022-09-18T05:53:21.049Z,21.94
2022-09-18T05:54:21.053Z,21.75
2022-09-18T05:55:21.050Z,21.84
2022-09-18T05:56:21.052Z,21.73
2022-09-18T05:57:21.049Z,21.75
2022-09-18T05:58:21.178Z,21.93
2022-09-18T05:59:21.049Z,21.75
2022-09-18T06:00:21.051Z,21.65
2022-09-18T06:01:21.088Z,21.65
2022-09-18T06:02:21.158Z,21.65
2022-09-18T06:03:21.115Z,21.94
2022-09-18T06:04:21.052Z,21.83
2022-09-18T06:05:21.051Z,21.75
2022-09-18T06:06:21.050Z,21.75
2022-09-18T06:07:21.049Z,21.64
2022-09-18T06:08:21.050Z,21.84
2022-09-18T06:09:21.051Z,21.73
2022-09-18T06:10:21.051Z,21.73
2022-09-18T06:11:21.050Z,21.83
2022-09-18T06:12:21.051Z,21.83
2022-09-18T06:13:21.050Z,21.73
2022-09-18T06:14:21.172Z,21.84
2022-09-18T06:15:21.051Z,21.64
2022-09-18T06:16:21.145Z,21.75
2022-09-18T06:17:21.050Z,21.75
2022-09-18T06:18:21.052Z,21.83
2022-09-18T06:19:21.049Z,21.65
2022-09-18T06:20:21.052Z,21.65
2022-09-18T06:21:21.052Z,21.75
2022-09-18T06:22:21.054Z,21.73
2022-09-18T06:23:21.051Z,21.75
2022-09-18T06:24:21.052Z,21.75
2022-09-18T06:25:21.052Z,21.84
2022-09-18T06:26:21.052Z,21.65
2022-09-18T06:27:21.053Z,21.84
2022-09-18T06:28:21.052Z,21.55
2022-09-18T06:29:21.050Z,21.54
2022-09-18T06:30:21.171Z,21.64
2022-09-18T06:31:21.126Z,21.55
2022-09-18T06:32:21.053Z,21.84
2022-09-18T06:33:21.051Z,21.64
2022-09-18T06:34:21.052Z,21.54
2022-09-18T06:35:21.051Z,21.55
2022-09-18T06:36:21.053Z,21.65
2022-09-18T06:37:21.053Z,21.64
2022-09-18T06:38:21.052Z,21.55
2022-09-18T06:39:21.051Z,21.64
2022-09-18T06:40:21.082Z,21.65
2022-09-18T06:41:21.054Z,21.65
2022-09-18T06:42:21.052Z,21.34
2022-09-18T06:43:21.059Z,21.73
2022-09-18T06:44:21.057Z,21.75
2022-09-18T06:45:21.052Z,21.36
2022-09-18T06:46:21.264Z,21.75
2022-09-18T06:47:21.052Z,21.65
2022-09-18T06:48:21.052Z,21.65
2022-09-18T06:49:21.051Z,21.75
2022-09-18T06:50:21.053Z,21.65
2022-09-18T06:51:21.054Z,21.45
2022-09-18T06:52:21.053Z,21.75
2022-09-18T06:53:21.054Z,21.45
2022-09-18T06:54:21.052Z,21.55
2022-09-18T06:55:21.052Z,21.84
2022-09-18T06:56:21.054Z,21.45
2022-09-18T06:57:21.052Z,21.55
2022-09-18T06:58:21.052Z,21.64
2022-09-18T06:59:21.052Z,21.55
2022-09-18T07:00:21.053Z,21.83
2022-09-18T07:01:21.093Z,21.94
2022-09-18T07:02:21.200Z,21.75
2022-09-18T07:03:21.052Z,21.55
2022-09-18T07:04:21.053Z,21.55
2022-09-18T07:05:21.052Z,21.75
2022-09-18T07:06:21.062Z,21.84
2022-09-18T07:07:21.053Z,21.45
2022-09-18T07:08:21.053Z,21.65
2022-09-18T07:09:21.052Z,21.45
2022-09-18T07:10:21.052Z,21.45
2022-09-18T07:11:21.053Z,21.65
2022-09-18T07:12:21.054Z,21.83
2022-09-18T07:13:21.054Z,21.65
2022-09-18T07:14:21.054Z,21.65
2022-09-18T07:15:21.053Z,21.45
2022-09-18T07:16:21.183Z,21.65
2022-09-18T07:17:24.373Z,21.55
2022-09-18T07:18:21.178Z,21.65
2022-09-18T07:19:21.054Z,21.55
2022-09-18T07:20:21.055Z,21.55
2022-09-18T07:21:21.053Z,21.54
2022-09-18T07:22:21.054Z,21.55
2022-09-18T07:23:21.053Z,21.55
2022-09-18T07:24:21.055Z,21.55
2022-09-18T07:25:21.053Z,21.36
2022-09-18T07:26:21.054Z,21.65
2022-09-18T07:27:21.053Z,21.55
2022-09-18T07:28:21.057Z,21.55
2022-09-18T07:29:21.055Z,21.45
2022-09-18T07:30:21.055Z,21.65
2022-09-18T07:31:21.096Z,21.65
2022-09-18T07:32:21.055Z,21.55
2022-09-18T07:33:21.053Z,21.55
2022-09-18T07:34:21.175Z,21.55
2022-09-18T07:35:21.054Z,21.55
2022-09-18T07:36:21.055Z,21.36
2022-09-18T07:37:21.056Z,21.65
2022-09-18T07:38:21.055Z,21.36
2022-09-18T07:39:21.055Z,21.45
2022-09-18T07:40:21.150Z,21.55
2022-09-18T07:41:21.055Z,21.45
2022-09-18T07:42:21.054Z,21.55
2022-09-18T07:43:21.054Z,21.55
2022-09-18T07:44:21.056Z,21.45
2022-09-18T07:45:21.055Z,21.36
2022-09-18T07:46:21.106Z,21.65
2022-09-18T07:47:21.058Z,21.45
2022-09-18T07:48:21.055Z,21.54
2022-09-18T07:49:21.063Z,21.55
2022-09-18T07:50:21.174Z,21.36
2022-09-18T07:51:26.036Z,21.45
2022-09-18T07:52:21.056Z,21.55
2022-09-18T07:53:21.055Z,21.45
2022-09-18T07:54:21.058Z,21.65
2022-09-18T07:55:21.058Z,21.45
2022-09-18T07:56:21.057Z,21.55
2022-09-18T07:57:21.057Z,21.45
2022-09-18T07:58:21.055Z,21.55
2022-09-18T07:59:21.063Z,21.45
2022-09-18T08:00:21.057Z,21.55
2022-09-18T08:01:21.123Z,21.45
2022-09-18T08:02:21.302Z,21.36
2022-09-18T08:03:21.055Z,21.55
2022-09-18T08:04:21.057Z,21.36
2022-09-18T08:05:21.057Z,21.55
2022-09-18T08:06:21.179Z,21.36
2022-09-18T08:07:21.057Z,21.65
2022-09-18T08:08:21.056Z,21.55
2022-09-18T08:09:21.056Z,21.45
2022-09-18T08:10:21.058Z,21.75
2022-09-18T08:11:21.057Z,21.36
2022-09-18T08:12:21.073Z,21.55
2022-09-18T08:13:21.057Z,21.65
2022-09-18T08:14:24.315Z,21.55
2022-09-18T08:15:21.058Z,21.36
2022-09-18T08:16:21.115Z,21.45
2022-09-18T08:17:21.057Z,21.36
2022-09-18T08:18:21.057Z,21.26
2022-09-18T08:19:21.064Z,21.36
2022-09-18T08:20:21.124Z,21.55
2022-09-18T08:21:21.058Z,21.36
2022-09-18T08:22:21.176Z,21.36
2022-09-18T08:23:21.057Z,21.36
2022-09-18T08:24:21.058Z,21.36
2022-09-18T08:25:21.063Z,21.36
2022-09-18T08:26:22.418Z,21.45
2022-09-18T08:27:21.057Z,21.45
2022-09-18T08:28:21.060Z,21.36
2022-09-18T08:29:21.058Z,21.45
2022-09-18T08:30:21.146Z,21.36
2022-09-18T08:31:21.184Z,21.36
2022-09-18T08:32:21.059Z,21.45
2022-09-18T08:33:21.059Z,21.36
2022-09-18T08:34:21.058Z,21.55
2022-09-18T08:35:21.057Z,21.55
2022-09-18T08:36:21.060Z,21.55
2022-09-18T08:37:21.061Z,21.55
2022-09-18T08:38:21.179Z,21.45
2022-09-18T08:39:21.062Z,21.26
2022-09-18T08:40:21.124Z,21.55
2022-09-18T08:41:21.091Z,21.45
2022-09-18T08:42:25.746Z,21.45
2022-09-18T08:43:21.059Z,21.65
2022-09-18T08:44:21.059Z,21.45
2022-09-18T08:45:21.060Z,21.45
2022-09-18T08:46:21.142Z,21.55
2022-09-18T08:47:21.058Z,21.65
2022-09-18T08:48:21.070Z,21.45
2022-09-18T08:49:21.060Z,21.36
2022-09-18T08:50:21.061Z,21.65
2022-09-18T08:51:21.059Z,20.97
2022-09-18T08:52:21.061Z,21.16
2022-09-18T08:53:21.059Z,21.16
2022-09-18T08:54:21.178Z,21.55
2022-09-18T08:55:21.059Z,21.06
2022-09-18T08:56:21.059Z,21.16
2022-09-18T08:57:21.060Z,21.16
2022-09-18T08:58:21.060Z,21.16
2022-09-18T08:59:21.060Z,21.36
2022-09-18T09:00:21.061Z,21.16
2022-09-18T09:01:21.110Z,21.45
2022-09-18T09:02:25.061Z,21.16
2022-09-18T09:03:21.059Z,21.16
2022-09-18T09:04:21.061Z,21.55
2022-09-18T09:05:21.060Z,21.26
2022-09-18T09:06:21.060Z,21.36
2022-09-18T09:07:21.060Z,21.26
2022-09-18T09:08:21.061Z,21.06
2022-09-18T09:09:21.633Z,21.45
2022-09-18T09:10:21.180Z,21.06
2022-09-18T09:11:21.059Z,21.16
2022-09-18T09:12:21.060Z,21.26
2022-09-18T09:13:21.111Z,21.16
2022-09-18T09:14:34.222Z,21.06
2022-09-18T09:15:21.943Z,21.16
2022-09-18T09:16:21.174Z,21.36
2022-09-18T09:17:21.061Z,21.26
2022-09-18T09:18:21.061Z,21.06
2022-09-18T09:19:21.060Z,21.26
2022-09-18T09:20:21.063Z,21.26
2022-09-18T09:21:21.061Z,21.36
2022-09-18T09:22:21.061Z,20.97
2022-09-18T09:23:21.060Z,21.16
2022-09-18T09:24:21.076Z,21.26
2022-09-18T09:25:21.062Z,21.16
2022-09-18T09:26:21.185Z,20.97
2022-09-18T09:27:21.061Z,21.26
2022-09-18T09:28:21.063Z,21.06
2022-09-18T09:29:21.063Z,21.26
2022-09-18T09:30:21.062Z,21.16
2022-09-18T09:31:21.137Z,21.06
2022-09-18T09:32:21.065Z,21.26
2022-09-18T09:33:21.062Z,20.87
2022-09-18T09:34:21.063Z,21.16
2022-09-18T09:35:21.062Z,21.06
2022-09-18T09:36:21.064Z,20.87
2022-09-18T09:37:21.063Z,20.97
2022-09-18T09:38:21.062Z,21.06
2022-09-18T09:39:21.062Z,21.06
2022-09-18T09:40:21.179Z,21.06
2022-09-18T09:41:21.062Z,20.87
2022-09-18T09:42:21.186Z,20.97
2022-09-18T09:43:21.062Z,21.06
2022-09-18T09:44:21.064Z,21.06
2022-09-18T09:45:21.065Z,21.06
2022-09-18T09:46:21.682Z,21.06
2022-09-18T09:47:21.065Z,20.97
2022-09-18T09:48:21.069Z,20.86
2022-09-18T09:49:21.064Z,20.97
2022-09-18T09:50:21.064Z,21.06
2022-09-18T09:51:21.065Z,20.97
2022-09-18T09:52:21.064Z,20.97
2022-09-18T09:53:21.063Z,20.97
2022-09-18T09:54:21.064Z,20.87
2022-09-18T09:55:21.063Z,20.97
2022-09-18T09:56:21.063Z,20.97
2022-09-18T09:57:21.066Z,20.87
2022-09-18T09:58:21.179Z,20.97
2022-09-18T09:59:21.064Z,20.87
2022-09-18T10:00:21.064Z,20.97
2022-09-18T10:01:21.137Z,20.97
2022-09-18T10:02:21.126Z,21.06
2022-09-18T10:03:21.064Z,20.97
2022-09-18T10:04:21.065Z,20.77
2022-09-18T10:05:21.068Z,20.97
2022-09-18T10:06:21.063Z,20.96
2022-09-18T10:07:21.066Z,20.77
2022-09-18T10:08:21.065Z,20.68
2022-09-18T10:09:21.067Z,20.97
2022-09-18T10:10:21.063Z,20.87
2022-09-18T10:11:21.066Z,20.77
2022-09-18T10:12:21.066Z,20.87
2022-09-18T10:13:21.065Z,20.86
2022-09-18T10:14:21.182Z,20.86
2022-09-18T10:15:21.065Z,20.67
2022-09-18T10:16:21.314Z,20.77
2022-09-18T10:17:21.067Z,20.68
2022-09-18T10:18:21.066Z,20.58
2022-09-18T10:19:21.067Z,20.77
2022-09-18T10:20:21.065Z,20.77
2022-09-18T10:21:21.073Z,20.77
2022-09-18T10:22:21.065Z,20.68
2022-09-18T10:23:21.067Z,20.68
2022-09-18T10:24:21.066Z,20.87
2022-09-18T10:25:21.066Z,20.87
2022-09-18T10:26:21.066Z,20.87
2022-09-18T10:27:21.066Z,20.77
2022-09-18T10:28:21.067Z,20.48
2022-09-18T10:29:21.067Z,20.87
2022-09-18T10:30:21.182Z,20.87
2022-09-18T10:31:21.100Z,20.87
2022-09-18T10:32:21.066Z,20.48
2022-09-18T10:33:21.068Z,20.77
2022-09-18T10:34:21.065Z,20.87
2022-09-18T10:35:21.067Z,20.77
2022-09-18T10:36:21.067Z,21.16
2022-09-18T10:37:21.068Z,20.48
2022-09-18T10:38:21.067Z,20.77
2022-09-18T10:39:21.070Z,20.68
2022-09-18T10:40:21.273Z,20.39
2022-09-18T10:41:21.068Z,20.48
2022-09-18T10:42:21.066Z,20.48
2022-09-18T10:43:21.069Z,20.58
2022-09-18T10:44:21.070Z,20.58
2022-09-18T10:45:21.069Z,20.48
2022-09-18T10:46:21.244Z,20.77
2022-09-18T10:47:21.068Z,20.68
2022-09-18T10:48:21.067Z,20.68
2022-09-18T10:49:21.069Z,20.68
2022-09-18T10:50:21.076Z,20.77
2022-09-18T10:51:21.069Z,20.68
2022-09-18T10:52:21.068Z,20.58
2022-09-18T10:53:21.070Z,20.68
2022-09-18T10:54:21.070Z,20.68
2022-09-18T10:55:21.069Z,20.57
2022-09-18T10:56:21.070Z,20.77
2022-09-18T10:57:21.069Z,20.68
2022-09-18T10:58:21.069Z,20.87
2022-09-18T10:59:21.070Z,20.48
2022-09-18T11:00:21.095Z,20.87
2022-09-18T11:01:21.159Z,20.68
2022-09-18T11:02:21.298Z,20.68
2022-09-18T11:03:21.070Z,20.77
2022-09-18T11:04:21.069Z,20.57
2022-09-18T11:05:21.080Z,20.87
2022-09-18T11:06:21.072Z,20.87
2022-09-18T11:07:25.555Z,20.87
2022-09-18T11:08:21.069Z,20.87
2022-09-18T11:09:21.070Z,20.87
2022-09-18T11:10:21.070Z,20.68
2022-09-18T11:11:21.071Z,20.97
2022-09-18T11:12:21.072Z,20.77
2022-09-18T11:13:21.071Z,20.58
2022-09-18T11:14:21.068Z,20.68
2022-09-18T11:15:21.072Z,20.87
2022-09-18T11:16:21.137Z,20.68
2022-09-18T11:17:21.073Z,20.68
2022-09-18T11:18:21.186Z,20.87
2022-09-18T11:19:21.071Z,20.48
2022-09-18T11:20:21.070Z,20.68
2022-09-18T11:21:21.072Z,20.97
2022-09-18T11:22:21.071Z,20.97
2022-09-18T11:23:21.071Z,20.77
2022-09-18T11:24:21.070Z,20.77
2022-09-18T11:25:21.072Z,20.77
2022-09-18T11:26:21.070Z,20.86
2022-09-18T11:27:21.072Z,20.77
2022-09-18T11:28:21.072Z,20.68
2022-09-18T11:29:21.073Z,20.97
2022-09-18T11:30:21.071Z,20.77
2022-09-18T11:31:21.152Z,20.68
2022-09-18T11:32:21.070Z,20.97
2022-09-18T11:33:21.073Z,20.96
2022-09-18T11:34:21.189Z,20.58
2022-09-18T11:35:21.073Z,20.97
2022-09-18T11:36:21.073Z,20.58
2022-09-18T11:37:21.073Z,20.58
2022-09-18T11:38:21.072Z,20.48
2022-09-18T11:39:24.442Z,20.48
2022-09-18T11:40:21.137Z,20.58
2022-09-18T11:41:21.074Z,20.39
2022-09-18T11:42:21.072Z,20.37
2022-09-18T11:43:21.073Z,20.48
2022-09-18T11:44:21.072Z,20.58
2022-09-18T11:45:21.075Z,20.48
2022-09-18T11:46:21.161Z,20.48
2022-09-18T11:47:21.074Z,20.39
2022-09-18T11:48:21.073Z,20.48
2022-09-18T11:49:21.074Z,20.58
2022-09-18T11:50:21.189Z,20.48
2022-09-18T11:51:21.074Z,20.48
2022-09-18T11:52:21.072Z,20.48
2022-09-18T11:53:21.075Z,20.29
2022-09-18T11:54:21.072Z,20.48
2022-09-18T11:55:21.074Z,20.48
2022-09-18T11:56:21.073Z,20.39
2022-09-18T11:57:21.075Z,20.58
2022-09-18T11:58:21.075Z,20.48
2022-09-18T11:59:21.084Z,20.39
2022-09-18T12:00:21.076Z,20.19
2022-09-18T12:01:21.074Z,20.29
2022-09-18T12:02:21.318Z,20.48
2022-09-18T12:03:21.221Z,20.29
2022-09-18T12:04:21.073Z,20.29
2022-09-18T12:05:21.075Z,20.48
2022-09-18T12:06:21.192Z,20.29
2022-09-18T12:07:38.923Z,20.48
2022-09-18T12:08:19.717Z,20.19
2022-09-18T12:09:19.720Z,20.29
2022-09-18T12:10:19.717Z,20.39
2022-09-18T12:11:19.722Z,20.00
2022-09-18T12:12:19.714Z,20.09
2022-09-18T12:13:19.717Z,20.29
2022-09-18T12:14:19.712Z,20.39
2022-09-18T12:15:19.722Z,20.39
2022-09-18T12:16:19.752Z,20.39
2022-09-18T12:17:19.711Z,20.39
2022-09-18T12:18:19.711Z,20.58
2022-09-18T12:19:19.715Z,20.19
2022-09-18T12:20:19.709Z,20.29
2022-09-18T12:21:19.715Z,20.09
2022-09-18T12:22:19.825Z,20.39
2022-09-18T12:23:19.708Z,20.39
2022-09-18T12:24:19.708Z,20.19
2022-09-18T12:25:19.709Z,20.39
2022-09-18T12:26:19.703Z,20.18
2022-09-18T12:27:19.705Z,20.39
2022-09-18T12:28:19.702Z,20.29
2022-09-18T12:29:19.854Z,20.09
2022-09-18T12:30:19.701Z,20.39
2022-09-18T12:31:19.846Z,20.19
2022-09-18T12:32:19.699Z,20.19
2022-09-18T12:33:19.700Z,20.29
2022-09-18T12:34:19.698Z,20.29
2022-09-18T12:35:19.698Z,20.29
2022-09-18T12:36:19.699Z,20.29
2022-09-18T12:37:19.700Z,20.39
2022-09-18T12:38:19.809Z,20.29
2022-09-18T12:39:20.369Z,20.29
2022-09-18T12:40:20.434Z,20.39
2022-09-18T12:41:20.366Z,20.19
2022-09-18T12:42:20.364Z,20.39
2022-09-18T12:43:20.364Z,20.39
2022-09-18T12:44:20.362Z,20.19
2022-09-18T12:45:20.364Z,20.09
2022-09-18T12:46:20.364Z,20.00
2022-09-18T12:47:20.362Z,20.29
2022-09-18T12:48:20.359Z,20.19
2022-09-18T12:49:20.361Z,20.29
2022-09-18T12:50:20.359Z,20.19
2022-09-18T12:51:20.360Z,20.19
2022-09-18T12:52:20.357Z,20.29
2022-09-18T12:53:20.361Z,20.19